Terminal Aerodrome Forecast
Issued by NWS

Home | Current Version | Previous Version | Text Only | Print | Product List | Glossary On
Versions: 1 2 3 4 5 6 7 8 9 10 11 12 13 14 15 16
000
FTUS43 KGRR 230500
TAFLAN
TAF
KLAN 230540Z 2306/2406 33010KT P6SM SCT035
      TEMPO 2306/2310 BKN035
     FM231600 34008KT P6SM BKN250
     FM240100 09003KT P6SM OVC140=

USA.gov is the U.S. government's official web portal to all federal, state and local government web resources and services.